Time;durP1;ratioP1;P1;durP2;ratioP2;P2;SDS_P1;SDS_P2;PMS_P1;PMS_P2;Temp;Humidity;BMP_temperature;BMP_pressure;BME280_temperature;BME280_humidity;BME280_pressure;Samples;Min_cycle;Max_cycle;Signal;HPM_P1;HPM_P2
2022/03/07 00:02:22;;;;;;;25.48;12.05;;;-6.20;99.90;;;;;;21068951;28;20480;-51
2022/03/07 00:12:25;;;;;;;24.85;11.35;;;-6.10;99.90;;;;;;21066116;28;20043;-54
2022/03/07 00:22:27;;;;;;;23.80;11.30;;;-6.10;99.90;;;;;;21066307;28;20032;-52
2022/03/07 00:32:30;;;;;;;27.52;11.60;;;-6.10;99.90;;;;;;21065397;28;20086;-55
2022/03/07 00:42:33;;;;;;;31.67;13.65;;;-6.20;99.90;;;;;;21065291;28;20044;-56
2022/03/07 00:52:36;;;;;;;29.08;13.90;;;-6.20;99.90;;;;;;21064855;28;20560;-54
2022/03/07 01:02:41;;;;;;;24.20;11.38;;;-6.30;99.90;;;;;;21064703;28;20054;-56
2022/03/07 01:12:43;;;;;;;30.58;12.07;;;-6.40;99.90;;;;;;21064220;28;20082;-56
2022/03/07 01:22:46;;;;;;;26.20;11.70;;;-6.30;99.90;;;;;;21070644;28;20093;-52
2022/03/07 01:32:52;;;;;;;25.83;11.63;;;-6.20;99.90;;;;;;21079669;28;20044;-53
2022/03/07 01:42:55;;;;;;;26.45;11.80;;;-6.20;99.90;;;;;;21078994;28;20085;-53
2022/03/07 01:52:58;;;;;;;28.02;13.02;;;-6.30;99.90;;;;;;21077811;28;20040;-52
2022/03/07 02:03:03;;;;;;;26.13;11.60;;;-6.30;99.90;;;;;;21078659;28;20044;-56
2022/03/07 02:13:17;;;;;;;28.50;11.52;;;-6.30;99.90;;;;;;21019734;28;20399;-54
2022/03/07 02:23:25;;;;;;;24.88;10.13;;;-6.40;99.90;;;;;;20992455;28;20041;-55
2022/03/07 02:33:27;;;;;;;30.20;12.25;;;-6.30;99.90;;;;;;20974135;28;20067;-55
2022/03/07 02:43:30;;;;;;;25.45;10.50;;;-6.30;99.90;;;;;;20990627;28;20040;-53
2022/03/07 02:53:33;;;;;;;30.38;14.05;;;-6.40;99.90;;;;;;20989829;28;20036;-56
2022/03/07 03:03:36;;;;;;;27.17;11.50;;;-6.40;99.90;;;;;;20988783;28;20090;-55
2022/03/07 03:13:39;;;;;;;26.02;10.68;;;-6.30;99.90;;;;;;21033309;28;20352;-51
2022/03/07 03:23:42;;;;;;;27.85;11.95;;;-6.40;99.90;;;;;;21070948;28;20441;-53
2022/03/07 03:33:44;;;;;;;24.80;11.95;;;-6.50;99.90;;;;;;21070120;28;20089;-54
2022/03/07 03:43:46;;;;;;;30.77;12.13;;;-6.50;99.90;;;;;;21054001;28;20101;-53
2022/03/07 03:53:49;;;;;;;24.63;10.70;;;-6.60;99.90;;;;;;21069976;28;20425;-55
2022/03/07 04:03:52;;;;;;;28.55;12.10;;;-6.60;99.90;;;;;;21068261;28;20462;-53
2022/03/07 04:13:55;;;;;;;29.38;12.60;;;-6.70;99.90;;;;;;21021221;28;20048;-56
2022/03/07 04:23:57;;;;;;;29.27;12.70;;;-6.60;99.90;;;;;;20982710;28;20044;-52
2022/03/07 04:34:00;;;;;;;32.43;14.80;;;-6.80;99.90;;;;;;20982528;28;20129;-52
2022/03/07 04:44:03;;;;;;;34.53;13.90;;;-6.80;99.90;;;;;;20981683;28;20040;-53
2022/03/07 04:54:06;;;;;;;26.47;12.20;;;-6.80;99.90;;;;;;20982521;28;20040;-53
2022/03/07 05:04:09;;;;;;;24.53;10.90;;;-6.80;99.90;;;;;;20989070;28;20066;-51
2022/03/07 05:14:12;;;;;;;30.23;13.83;;;-6.90;99.90;;;;;;21019954;28;20453;-52
2022/03/07 05:24:14;;;;;;;26.33;12.27;;;-6.90;99.90;;;;;;21029651;28;20075;-51
2022/03/07 05:34:17;;;;;;;26.93;11.83;;;-7.00;99.90;;;;;;20952774;28;20188;-56
2022/03/07 05:44:20;;;;;;;27.33;11.30;;;-7.10;99.90;;;;;;20957220;28;20040;-53
2022/03/07 05:54:22;;;;;;;25.43;11.80;;;-7.10;99.90;;;;;;20977091;28;20549;-56
2022/03/07 06:04:26;;;;;;;20.47;9.77;;;-7.00;99.90;;;;;;20976429;28;20438;-55
2022/03/07 06:14:29;;;;;;;22.33;8.63;;;-6.90;99.90;;;;;;21043638;28;20056;-56
2022/03/07 06:24:31;;;;;;;22.77;10.10;;;-6.70;99.90;;;;;;21075844;28;20036;-54
2022/03/07 06:34:34;;;;;;;19.98;9.30;;;-6.50;99.90;;;;;;21074890;28;20028;-57
2022/03/07 06:44:39;;;;;;;23.02;9.20;;;-6.30;99.90;;;;;;21074754;28;20094;-54
2022/03/07 06:54:42;;;;;;;25.02;11.60;;;-6.10;99.90;;;;;;21040983;28;20077;-54
2022/03/07 07:04:45;;;;;;;25.60;10.70;;;-5.90;99.90;;;;;;21033540;28;20024;-54
2022/03/07 07:14:48;;;;;;;25.02;10.65;;;-5.60;99.90;;;;;;21020048;28;20153;-57
2022/03/07 07:24:51;;;;;;;25.52;10.40;;;-5.00;99.90;;;;;;20988379;28;20545;-56
2022/03/07 07:34:54;;;;;;;21.83;10.43;;;-4.30;99.90;;;;;;20987505;28;20036;-55
2022/03/07 07:44:56;;;;;;;24.38;11.07;;;-3.60;99.90;;;;;;20987104;28;20066;-56
2022/03/07 07:54:59;;;;;;;24.40;11.40;;;-2.70;99.90;;;;;;20987330;28;20058;-56
2022/03/07 08:05:03;;;;;;;20.45;11.45;;;-1.60;99.90;;;;;;20969762;28;20101;-55
2022/03/07 08:15:11;;;;;;;23.00;12.07;;;-0.50;99.90;;;;;;21031964;28;20048;-56
2022/03/07 08:25:14;;;;;;;20.92;11.13;;;0.30;99.90;;;;;;21117354;28;20123;-55
2022/03/07 08:35:17;;;;;;;20.48;10.95;;;0.80;99.90;;;;;;21133623;28;20085;-54
2022/03/07 08:45:22;;;;;;;21.55;10.88;;;1.40;99.90;;;;;;21184716;27;20035;-56
2022/03/07 08:55:25;;;;;;;20.15;11.00;;;2.00;99.90;;;;;;21219284;27;20039;-58
2022/03/07 09:05:28;;;;;;;19.70;10.75;;;2.30;99.90;;;;;;21219419;28;20490;-56
2022/03/07 09:15:30;;;;;;;20.88;11.52;;;2.60;99.90;;;;;;21150244;28;20048;-54
2022/03/07 09:25:33;;;;;;;18.92;10.35;;;3.10;99.90;;;;;;21050282;28;20395;-57
2022/03/07 09:35:36;;;;;;;18.83;11.15;;;3.40;98.30;;;;;;21036258;28;20044;-57
2022/03/07 09:45:38;;;;;;;20.35;10.55;;;4.30;96.40;;;;;;21059769;28;20040;-58
2022/03/07 09:55:41;;;;;;;17.02;10.27;;;4.40;95.10;;;;;;21063235;28;20028;-54
2022/03/07 10:05:48;;;;;;;15.00;9.38;;;4.80;95.40;;;;;;21063646;28;20070;-55
2022/03/07 10:15:59;;;;;;;16.80;9.45;;;5.10;93.70;;;;;;21062540;28;20492;-55
2022/03/07 10:26:08;;;;;;;17.08;9.55;;;5.30;93.20;;;;;;21061348;28;20091;-56
2022/03/07 10:36:11;;;;;;;16.90;10.00;;;4.20;93.40;;;;;;21045541;28;20085;-57
2022/03/07 10:46:25;;;;;;;18.30;9.07;;;4.90;94.60;;;;;;21060644;28;20085;-58
2022/03/07 10:56:27;;;;;;;13.60;8.23;;;5.20;94.80;;;;;;21042446;28;20036;-59
2022/03/07 11:06:31;;;;;;;17.08;8.50;;;5.60;93.10;;;;;;21059438;28;20036;-57
2022/03/07 11:16:34;;;;;;;19.13;8.80;;;6.10;92.40;;;;;;21057732;28;20048;-58
2022/03/07 11:26:41;;;;;;;14.73;7.95;;;6.20;92.10;;;;;;21056539;28;20032;-59
2022/03/07 11:36:45;;;;;;;15.60;8.20;;;5.50;92.20;;;;;;21056346;28;20332;-58
2022/03/07 11:46:51;;;;;;;14.90;7.25;;;5.50;91.70;;;;;;21055808;28;20040;-59
2022/03/07 11:57:10;;;;;;;12.20;7.47;;;5.20;93.10;;;;;;21037612;28;20184;-58
2022/03/07 12:07:23;;;;;;;13.52;7.95;;;5.50;92.30;;;;;;21052633;28;20097;-57
2022/03/07 12:17:27;;;;;;;14.55;8.82;;;5.80;92.10;;;;;;21127728;28;20077;-58
2022/03/07 12:27:37;;;;;;;16.50;9.18;;;5.40;92.60;;;;;;21136045;28;20062;-58
2022/03/07 12:37:40;;;;;;;15.07;9.77;;;6.30;92.60;;;;;;21134901;28;20081;-59
2022/03/07 12:47:43;;;;;;;16.63;9.20;;;6.40;92.60;;;;;;21134164;28;20455;-55
2022/03/07 12:57:46;;;;;;;15.07;9.52;;;6.80;91.90;;;;;;21117810;28;20088;-58
2022/03/07 13:07:58;;;;;;;15.10;9.75;;;6.50;91.30;;;;;;21133939;28;20084;-60
2022/03/07 13:18:04;;;;;;;;;;;6.40;92.60;;;;;;21138115;28;20047;-59
2022/03/07 13:28:07;;;;;;;16.33;9.88;;;6.10;92.50;;;;;;21148505;28;19965;-58
2022/03/07 13:38:19;;;;;;;17.27;10.25;;;5.90;92.90;;;;;;21147432;28;20039;-59
2022/03/07 13:48:24;;;;;;;19.63;11.00;;;6.00;92.50;;;;;;21129710;28;20532;-60
2022/03/07 13:58:36;;;;;;;20.13;10.80;;;5.40;92.70;;;;;;21145827;28;20031;-58
2022/03/07 14:08:42;;;;;;;21.10;11.55;;;4.40;93.40;;;;;;21144369;28;20040;-54
2022/03/07 14:18:46;;;;;;;19.95;11.15;;;3.70;94.90;;;;;;21141534;28;20112;-55
2022/03/07 14:28:48;;;;;;;19.40;11.48;;;3.40;95.20;;;;;;21069683;28;20420;-54
2022/03/07 14:38:50;;;;;;;18.17;10.60;;;3.00;95.80;;;;;;21142334;28;20027;-55
2022/03/07 14:48:53;;;;;;;21.48;11.55;;;2.70;96.10;;;;;;21140813;28;20077;-58
2022/03/07 14:58:55;;;;;;;21.48;10.98;;;2.50;96.40;;;;;;21140012;28;20029;-55
2022/03/07 15:09:00;;;;;;;22.80;12.07;;;2.20;97.00;;;;;;21134501;28;20488;-56
2022/03/07 15:19:07;;;;;;;22.85;11.98;;;1.90;97.50;;;;;;21112072;28;20096;-56
2022/03/07 15:29:12;;;;;;;21.70;12.70;;;1.50;98.30;;;;;;21137243;28;20032;-54
2022/03/07 15:39:17;;;;;;;23.70;12.68;;;1.30;98.70;;;;;;21135760;28;20035;-57
2022/03/07 15:49:22;;;;;;;22.13;12.48;;;1.00;99.30;;;;;;21136099;28;20483;-54
2022/03/07 15:59:25;;;;;;;20.50;11.73;;;0.70;99.70;;;;;;21135163;28;20372;-56
2022/03/07 16:09:28;;;;;;;21.40;12.43;;;0.10;99.90;;;;;;21125934;28;20185;-55
2022/03/07 16:19:31;;;;;;;22.15;11.80;;;-0.50;99.90;;;;;;21049654;28;20040;-51
2022/03/07 16:29:34;;;;;;;24.58;12.40;;;-1.10;99.90;;;;;;21049107;28;20040;-56
2022/03/07 16:39:36;;;;;;;29.13;13.93;;;-1.50;99.90;;;;;;21048331;28;20082;-56
2022/03/07 16:49:41;;;;;;;24.02;12.50;;;-1.90;99.90;;;;;;21047179;28;20055;-55
2022/03/07 16:59:43;;;;;;;27.60;14.02;;;-2.20;99.90;;;;;;21047262;28;20189;-56
2022/03/07 17:09:46;;;;;;;19.75;11.75;;;-2.30;99.90;;;;;;21046377;28;20036;-55
2022/03/07 17:19:50;;;;;;;24.20;12.73;;;-2.50;99.90;;;;;;21046325;28;20117;-56
2022/03/07 17:29:53;;;;;;;26.48;11.82;;;-2.70;99.90;;;;;;21046090;28;20032;-56
2022/03/07 17:39:55;;;;;;;27.15;13.32;;;-3.00;99.90;;;;;;21046470;28;20356;-52
2022/03/07 17:49:58;;;;;;;23.15;11.45;;;-3.20;99.90;;;;;;21045540;28;20036;-55
2022/03/07 18:00:00;;;;;;;24.65;10.85;;;-3.30;99.90;;;;;;21045101;28;20036;-56
2022/03/07 18:10:04;;;;;;;25.30;10.80;;;-3.40;99.90;;;;;;21072364;28;20435;-56
2022/03/07 18:20:11;;;;;;;28.25;12.80;;;-3.50;99.90;;;;;;21142818;28;20047;-51
2022/03/07 18:30:14;;;;;;;27.67;13.77;;;-3.60;99.90;;;;;;21142176;28;20027;-55
2022/03/07 18:40:17;;;;;;;28.38;14.02;;;-3.70;99.90;;;;;;21124785;28;20058;-56
2022/03/07 18:50:19;;;;;;;26.95;12.90;;;-3.90;99.90;;;;;;21140753;28;20396;-52
2022/03/07 19:00:23;;;;;;;21.40;11.48;;;-3.90;99.90;;;;;;21122974;28;20105;-53
2022/03/07 19:10:26;;;;;;;28.20;13.20;;;-4.00;99.90;;;;;;21138622;28;20051;-56
2022/03/07 19:20:31;;;;;;;22.85;10.45;;;-4.10;99.90;;;;;;21120774;28;20040;-54
2022/03/07 19:30:34;;;;;;;28.92;12.52;;;-4.20;99.90;;;;;;21122020;28;20039;-53
2022/03/07 19:40:38;;;;;;;30.92;13.95;;;-4.20;99.90;;;;;;21120186;28;20160;-55
2022/03/07 19:50:41;;;;;;;28.67;13.68;;;-4.30;99.90;;;;;;21135841;28;20065;-54
2022/03/07 20:00:43;;;;;;;27.35;12.50;;;-4.30;99.90;;;;;;21134547;28;20031;-56
2022/03/07 20:10:46;;;;;;;27.17;12.25;;;-4.40;99.90;;;;;;21133792;28;20558;-56
2022/03/07 20:20:51;;;;;;;29.55;12.32;;;-4.40;99.90;;;;;;21134096;28;20124;-56
2022/03/07 20:30:53;;;;;;;28.67;12.98;;;-4.50;99.90;;;;;;21132453;28;20040;-56
2022/03/07 20:40:56;;;;;;;27.10;12.43;;;-4.60;99.90;;;;;;21132441;28;20108;-56
2022/03/07 20:50:58;;;;;;;26.55;11.63;;;-4.60;99.90;;;;;;21132807;28;20040;-55
2022/03/07 21:01:01;;;;;;;30.83;13.50;;;-4.70;99.90;;;;;;21131258;28;20040;-53
2022/03/07 21:11:03;;;;;;;39.42;16.75;;;-4.70;99.90;;;;;;21129933;28;20101;-56
2022/03/07 21:21:06;;;;;;;35.70;14.98;;;-4.70;99.90;;;;;;21045880;28;20106;-56
2022/03/07 21:31:09;;;;;;;36.40;16.35;;;-4.30;99.90;;;;;;21046005;28;20086;-54
2022/03/07 21:41:12;;;;;;;35.83;17.38;;;-3.70;99.90;;;;;;21054434;28;20040;-57
2022/03/07 21:51:14;;;;;;;37.47;17.50;;;-3.50;99.90;;;;;;21060789;28;20032;-55
2022/03/07 22:01:18;;;;;;;35.35;18.15;;;-3.10;99.90;;;;;;21059910;28;20028;-58
2022/03/07 22:11:22;;;;;;;34.45;17.38;;;-2.70;99.90;;;;;;21058687;28;20040;-56
2022/03/07 22:21:25;;;;;;;38.42;18.52;;;-2.40;99.90;;;;;;21058399;28;20056;-55
2022/03/07 22:31:28;;;;;;;37.10;17.33;;;-2.30;99.90;;;;;;21058354;28;20089;-57
2022/03/07 22:41:30;;;;;;;32.55;17.48;;;-2.10;99.90;;;;;;21057175;28;20055;-53
2022/03/07 22:51:33;;;;;;;37.30;18.67;;;-1.90;99.90;;;;;;21055512;28;20083;-58
2022/03/07 23:01:37;;;;;;;33.47;18.58;;;-1.90;99.90;;;;;;21056054;28;20102;-56
2022/03/07 23:11:40;;;;;;;37.17;17.80;;;-1.90;99.90;;;;;;21054762;28;20044;-55
2022/03/07 23:21:42;;;;;;;33.60;17.60;;;-1.80;99.90;;;;;;21135051;28;20451;-54
2022/03/07 23:31:45;;;;;;;34.05;17.15;;;-1.80;99.90;;;;;;21137435;28;20107;-55
2022/03/07 23:41:47;;;;;;;36.22;17.85;;;-1.90;99.90;;;;;;21119996;28;20470;-55
2022/03/07 23:51:50;;;;;;;41.28;20.60;;;-1.90;99.90;;;;;;21119168;28;20445;-56
